sensor_id;sensor_type;location;lat;lon;timestamp;pressure;altitude;pressure_sealevel;temperature;humidity
3122;BME280;1571;52.524;14.104;2024-02-23T00:00:54;98057.19;;;9.64;100.00
3122;BME280;1571;52.524;14.104;2024-02-23T00:03:22;98058.84;;;9.65;100.00
3122;BME280;1571;52.524;14.104;2024-02-23T00:05:50;98071.06;;;9.58;100.00
3122;BME280;1571;52.524;14.104;2024-02-23T00:08:20;98061.13;;;9.60;100.00
3122;BME280;1571;52.524;14.104;2024-02-23T00:10:48;98059.47;;;9.59;100.00
3122;BME280;1571;52.524;14.104;2024-02-23T00:13:17;98063.66;;;9.62;100.00
3122;BME280;1571;52.524;14.104;2024-02-23T00:15:45;98048.56;;;9.62;100.00
3122;BME280;1571;52.524;14.104;2024-02-23T00:18:14;98047.81;;;9.52;100.00
3122;BME280;1571;52.524;14.104;2024-02-23T00:20:44;98047.81;;;9.52;100.00
3122;BME280;1571;52.524;14.104;2024-02-23T00:23:12;98045.88;;;9.54;100.00
3122;BME280;1571;52.524;14.104;2024-02-23T00:25:42;98043.53;;;9.51;100.00
3122;BME280;1571;52.524;14.104;2024-02-23T00:28:10;98038.38;;;9.49;100.00
3122;BME280;1571;52.524;14.104;2024-02-23T00:30:38;98046.19;;;9.51;100.00
3122;BME280;1571;52.524;14.104;2024-02-23T00:33:07;98042.91;;;9.57;100.00
3122;BME280;1571;52.524;14.104;2024-02-23T00:35:37;98037.25;;;9.52;100.00
3122;BME280;1571;52.524;14.104;2024-02-23T00:38:05;98032.16;;;9.58;100.00
3122;BME280;1571;52.524;14.104;2024-02-23T00:40:35;98039.47;;;9.65;100.00
3122;BME280;1571;52.524;14.104;2024-02-23T00:43:05;98031.00;;;9.61;100.00
3122;BME280;1571;52.524;14.104;2024-02-23T00:45:33;98032.13;;;9.50;100.00
3122;BME280;1571;52.524;14.104;2024-02-23T00:48:01;98037.97;;;9.62;100.00
3122;BME280;1571;52.524;14.104;2024-02-23T00:50:29;98045.81;;;9.72;100.00
3122;BME280;1571;52.524;14.104;2024-02-23T00:52:58;98034.06;;;9.74;100.00
3122;BME280;1571;52.524;14.104;2024-02-23T00:55:26;98044.41;;;9.86;100.00
3122;BME280;1571;52.524;14.104;2024-02-23T00:57:54;98031.75;;;9.97;100.00
3122;BME280;1571;52.524;14.104;2024-02-23T01:00:24;98035.91;;;10.08;100.00
3122;BME280;1571;52.524;14.104;2024-02-23T01:02:53;98028.34;;;10.13;100.00
3122;BME280;1571;52.524;14.104;2024-02-23T01:05:21;98020.00;;;10.08;100.00
3122;BME280;1571;52.524;14.104;2024-02-23T01:07:49;98013.19;;;9.97;100.00
3122;BME280;1571;52.524;14.104;2024-02-23T01:10:18;98015.50;;;10.00;100.00
3122;BME280;1571;52.524;14.104;2024-02-23T01:12:46;98008.72;;;9.98;100.00
3122;BME280;1571;52.524;14.104;2024-02-23T01:15:14;97984.03;;;9.97;100.00
3122;BME280;1571;52.524;14.104;2024-02-23T01:17:44;97988.84;;;10.02;100.00
3122;BME280;1571;52.524;14.104;2024-02-23T01:20:12;97998.09;;;9.98;100.00
3122;BME280;1571;52.524;14.104;2024-02-23T01:22:41;98000.44;;;10.01;100.00
3122;BME280;1571;52.524;14.104;2024-02-23T01:25:09;98009.09;;;10.11;100.00
3122;BME280;1571;52.524;14.104;2024-02-23T01:27:37;98014.22;;;10.05;100.00
3122;BME280;1571;52.524;14.104;2024-02-23T01:30:08;98020.69;;;10.10;100.00
3122;BME280;1571;52.524;14.104;2024-02-23T01:32:36;98025.00;;;10.11;100.00
3122;BME280;1571;52.524;14.104;2024-02-23T01:35:08;98020.19;;;10.15;100.00
3122;BME280;1571;52.524;14.104;2024-02-23T01:37:36;98025.41;;;10.25;100.00
3122;BME280;1571;52.524;14.104;2024-02-23T01:40:06;98029.66;;;10.17;100.00
3122;BME280;1571;52.524;14.104;2024-02-23T01:42:34;98029.31;;;10.12;100.00
3122;BME280;1571;52.524;14.104;2024-02-23T01:45:03;98027.00;;;10.17;100.00
3122;BME280;1571;52.524;14.104;2024-02-23T01:47:32;98038.59;;;10.16;100.00
3122;BME280;1571;52.524;14.104;2024-02-23T01:50:00;98046.56;;;10.16;100.00
3122;BME280;1571;52.524;14.104;2024-02-23T01:52:30;98057.69;;;10.20;100.00
3122;BME280;1571;52.524;14.104;2024-02-23T01:54:59;98069.41;;;10.17;100.00
3122;BME280;1571;52.524;14.104;2024-02-23T01:57:28;98066.94;;;10.16;100.00
3122;BME280;1571;52.524;14.104;2024-02-23T02:00:17;98087.63;;;10.12;100.00
3122;BME280;1571;52.524;14.104;2024-02-23T02:02:52;98071.81;;;10.29;100.00
3122;BME280;1571;52.524;14.104;2024-02-23T02:05:21;98086.38;;;10.25;100.00
3122;BME280;1571;52.524;14.104;2024-02-23T02:07:51;98089.50;;;10.20;100.00
3122;BME280;1571;52.524;14.104;2024-02-23T02:10:26;98093.72;;;10.31;100.00
3122;BME280;1571;52.524;14.104;2024-02-23T02:12:54;98112.47;;;10.37;100.00
3122;BME280;1571;52.524;14.104;2024-02-23T02:15:22;98109.03;;;10.45;100.00
3122;BME280;1571;52.524;14.104;2024-02-23T02:17:50;98121.63;;;10.43;100.00
3122;BME280;1571;52.524;14.104;2024-02-23T02:20:24;98139.56;;;10.49;99.46
3122;BME280;1571;52.524;14.104;2024-02-23T02:22:54;98151.16;;;10.48;99.18
3122;BME280;1571;52.524;14.104;2024-02-23T02:25:22;98154.47;;;10.50;98.54
3122;BME280;1571;52.524;14.104;2024-02-23T02:27:50;98161.41;;;10.43;98.31
3122;BME280;1571;52.524;14.104;2024-02-23T02:30:19;98170.59;;;10.57;97.49
3122;BME280;1571;52.524;14.104;2024-02-23T02:32:47;98165.91;;;10.51;97.01
3122;BME280;1571;52.524;14.104;2024-02-23T02:35:15;98163.78;;;10.54;96.43
3122;BME280;1571;52.524;14.104;2024-02-23T02:37:44;98154.16;;;10.53;95.26
3122;BME280;1571;52.524;14.104;2024-02-23T02:40:14;98156.13;;;10.51;94.49
3122;BME280;1571;52.524;14.104;2024-02-23T02:42:43;98170.75;;;10.55;92.81
3122;BME280;1571;52.524;14.104;2024-02-23T02:45:11;98166.78;;;10.59;90.85
3122;BME280;1571;52.524;14.104;2024-02-23T02:47:39;98165.78;;;10.52;88.61
3122;BME280;1571;52.524;14.104;2024-02-23T02:50:09;98169.44;;;10.59;83.03
3122;BME280;1571;52.524;14.104;2024-02-23T02:52:37;98165.97;;;10.67;78.07
3122;BME280;1571;52.524;14.104;2024-02-23T02:55:06;98151.34;;;10.55;74.08
3122;BME280;1571;52.524;14.104;2024-02-23T02:57:36;98157.41;;;10.39;72.25
3122;BME280;1571;52.524;14.104;2024-02-23T03:00:09;98174.75;;;10.33;70.54
3122;BME280;1571;52.524;14.104;2024-02-23T03:02:37;98185.09;;;10.18;69.76
3122;BME280;1571;52.524;14.104;2024-02-23T03:05:06;98202.91;;;10.08;70.07
3122;BME280;1571;52.524;14.104;2024-02-23T03:07:35;98227.09;;;10.05;69.11
3122;BME280;1571;52.524;14.104;2024-02-23T03:10:04;98248.84;;;9.91;69.58
3122;BME280;1571;52.524;14.104;2024-02-23T03:12:32;98263.66;;;9.84;69.66
3122;BME280;1571;52.524;14.104;2024-02-23T03:15:02;98279.56;;;9.84;69.43
3122;BME280;1571;52.524;14.104;2024-02-23T03:17:30;98299.31;;;9.71;70.08
3122;BME280;1571;52.524;14.104;2024-02-23T03:20:00;98312.47;;;9.63;70.85
3122;BME280;1571;52.524;14.104;2024-02-23T03:22:29;98324.06;;;9.62;70.09
3122;BME280;1571;52.524;14.104;2024-02-23T03:24:57;98330.44;;;9.69;69.30
3122;BME280;1571;52.524;14.104;2024-02-23T03:27:28;98335.09;;;9.57;69.57
3122;BME280;1571;52.524;14.104;2024-02-23T03:29:57;98336.06;;;9.56;69.36
3122;BME280;1571;52.524;14.104;2024-02-23T03:32:26;98359.09;;;9.56;69.12
3122;BME280;1571;52.524;14.104;2024-02-23T03:34:55;98359.97;;;9.47;69.35
3122;BME280;1571;52.524;14.104;2024-02-23T03:37:23;98385.81;;;9.35;70.03
3122;BME280;1571;52.524;14.104;2024-02-23T03:39:51;98372.25;;;9.38;69.20
3122;BME280;1571;52.524;14.104;2024-02-23T03:42:20;98379.34;;;9.47;68.31
3122;BME280;1571;52.524;14.104;2024-02-23T03:44:48;98386.94;;;9.32;68.97
3122;BME280;1571;52.524;14.104;2024-02-23T03:47:17;98399.47;;;9.30;69.14
3122;BME280;1571;52.524;14.104;2024-02-23T03:49:47;98409.19;;;9.40;68.39
3122;BME280;1571;52.524;14.104;2024-02-23T03:52:15;98403.75;;;9.41;68.74
3122;BME280;1571;52.524;14.104;2024-02-23T03:54:43;98409.19;;;9.40;68.31
3122;BME280;1571;52.524;14.104;2024-02-23T03:57:11;98408.25;;;9.31;68.87
3122;BME280;1571;52.524;14.104;2024-02-23T03:59:40;98416.06;;;9.32;68.43
3122;BME280;1571;52.524;14.104;2024-02-23T04:02:08;98409.47;;;9.36;67.61
3122;BME280;1571;52.524;14.104;2024-02-23T04:04:36;98414.94;;;9.35;67.42
3122;BME280;1571;52.524;14.104;2024-02-23T04:07:06;98425.53;;;9.25;68.35
3122;BME280;1571;52.524;14.104;2024-02-23T04:09:34;98442.84;;;9.20;68.40
3122;BME280;1571;52.524;14.104;2024-02-23T04:12:03;98454.56;;;9.07;69.03
3122;BME280;1571;52.524;14.104;2024-02-23T04:14:31;98446.88;;;9.14;68.29
3122;BME280;1571;52.524;14.104;2024-02-23T04:17:01;98450.28;;;8.96;69.38
3122;BME280;1571;52.524;14.104;2024-02-23T04:19:29;98472.69;;;9.02;69.03
3122;BME280;1571;52.524;14.104;2024-02-23T04:21:57;98487.31;;;8.96;69.33
3122;BME280;1571;52.524;14.104;2024-02-23T04:24:27;98475.91;;;8.86;68.89
3122;BME280;1571;52.524;14.104;2024-02-23T04:26:55;98485.94;;;8.92;69.18
3122;BME280;1571;52.524;14.104;2024-02-23T04:29:23;98500.97;;;8.92;69.08
3122;BME280;1571;52.524;14.104;2024-02-23T04:31:51;98511.00;;;8.88;69.03
3122;BME280;1571;52.524;14.104;2024-02-23T04:34:20;98520.06;;;8.76;69.75
3122;BME280;1571;52.524;14.104;2024-02-23T04:36:48;98523.81;;;8.83;69.07
3122;BME280;1571;52.524;14.104;2024-02-23T04:39:16;98526.47;;;8.83;69.11
3122;BME280;1571;52.524;14.104;2024-02-23T04:41:46;98533.69;;;8.81;69.23
3122;BME280;1571;52.524;14.104;2024-02-23T04:44:14;98533.69;;;8.81;68.54
3122;BME280;1571;52.524;14.104;2024-02-23T04:46:43;98535.63;;;8.89;68.02
3122;BME280;1571;52.524;14.104;2024-02-23T04:49:11;98547.44;;;8.55;69.29
3122;BME280;1571;52.524;14.104;2024-02-23T04:51:40;98563.59;;;8.62;68.75
3122;BME280;1571;52.524;14.104;2024-02-23T04:54:08;98558.06;;;8.75;67.99
3122;BME280;1571;52.524;14.104;2024-02-23T04:56:36;98554.97;;;8.60;68.68
3122;BME280;1571;52.524;14.104;2024-02-23T04:59:06;98564.28;;;8.45;69.05
3122;BME280;1571;52.524;14.104;2024-02-23T05:01:37;98561.34;;;8.58;68.15
3122;BME280;1571;52.524;14.104;2024-02-23T05:04:05;98546.06;;;8.51;68.03
3122;BME280;1571;52.524;14.104;2024-02-23T05:06:34;98572.09;;;8.66;67.23
3122;BME280;1571;52.524;14.104;2024-02-23T05:09:02;98573.22;;;8.63;67.06
3122;BME280;1571;52.524;14.104;2024-02-23T05:11:31;98607.81;;;8.41;68.17
3122;BME280;1571;52.524;14.104;2024-02-23T05:13:59;98611.66;;;8.37;68.01
3122;BME280;1571;52.524;14.104;2024-02-23T05:16:29;98606.00;;;8.51;67.57
3122;BME280;1571;52.524;14.104;2024-02-23T05:18:57;98612.28;;;8.40;67.48
3122;BME280;1571;52.524;14.104;2024-02-23T05:21:25;98623.63;;;8.31;68.23
3122;BME280;1571;52.524;14.104;2024-02-23T05:23:54;98633.91;;;8.34;68.01
3122;BME280;1571;52.524;14.104;2024-02-23T05:26:22;98638.47;;;8.22;68.13
3122;BME280;1571;52.524;14.104;2024-02-23T05:28:50;98644.69;;;8.21;67.78
3122;BME280;1571;52.524;14.104;2024-02-23T05:31:19;98644.94;;;8.08;67.94
3122;BME280;1571;52.524;14.104;2024-02-23T05:33:49;98651.06;;;8.09;67.74
3122;BME280;1571;52.524;14.104;2024-02-23T05:36:17;98672.66;;;7.93;68.24
3122;BME280;1571;52.524;14.104;2024-02-23T05:38:46;98663.66;;;8.05;67.25
3122;BME280;1571;52.524;14.104;2024-02-23T05:41:15;98671.81;;;7.92;67.93
3122;BME280;1571;52.524;14.104;2024-02-23T05:43:43;98677.09;;;7.92;67.56
3122;BME280;1571;52.524;14.104;2024-02-23T05:46:11;98698.47;;;7.89;67.54
3122;BME280;1571;52.524;14.104;2024-02-23T05:48:40;98701.25;;;7.88;67.91
3122;BME280;1571;52.524;14.104;2024-02-23T05:51:09;98708.88;;;8.02;66.94
3122;BME280;1571;52.524;14.104;2024-02-23T05:53:38;98712.94;;;8.06;66.56
3122;BME280;1571;52.524;14.104;2024-02-23T05:56:06;98731.94;;;8.00;66.78
3122;BME280;1571;52.524;14.104;2024-02-23T05:58:34;98761.50;;;7.94;67.08
3122;BME280;1571;52.524;14.104;2024-02-23T06:01:03;98740.81;;;7.99;66.58
3122;BME280;1571;52.524;14.104;2024-02-23T06:03:31;98767.50;;;7.96;66.48
3122;BME280;1571;52.524;14.104;2024-02-23T06:05:59;98764.94;;;8.06;66.11
3122;BME280;1571;52.524;14.104;2024-02-23T06:08:29;98765.84;;;7.95;66.71
3122;BME280;1571;52.524;14.104;2024-02-23T06:10:57;98774.75;;;7.83;67.32
3122;BME280;1571;52.524;14.104;2024-02-23T06:13:27;98770.13;;;7.75;66.97
3122;BME280;1571;52.524;14.104;2024-02-23T06:15:56;98779.66;;;7.55;67.64
3122;BME280;1571;52.524;14.104;2024-02-23T06:18:24;98796.25;;;7.46;68.07
3122;BME280;1571;52.524;14.104;2024-02-23T06:20:52;98791.22;;;7.43;67.60
3122;BME280;1571;52.524;14.104;2024-02-23T06:23:21;98797.91;;;7.47;67.59
3122;BME280;1571;52.524;14.104;2024-02-23T06:25:51;98827.59;;;7.28;68.31
3122;BME280;1571;52.524;14.104;2024-02-23T06:28:19;98836.84;;;7.22;68.69
3122;BME280;1571;52.524;14.104;2024-02-23T06:30:48;98846.91;;;7.17;68.97
3122;BME280;1571;52.524;14.104;2024-02-23T06:33:16;98852.56;;;7.13;68.95
3122;BME280;1571;52.524;14.104;2024-02-23T06:35:44;98878.84;;;7.03;69.54
3122;BME280;1571;52.524;14.104;2024-02-23T06:38:13;98882.75;;;6.97;70.13
3122;BME280;1571;52.524;14.104;2024-02-23T06:40:41;98901.09;;;6.87;70.43
3122;BME280;1571;52.524;14.104;2024-02-23T06:43:19;98904.22;;;6.93;70.11
3122;BME280;1571;52.524;14.104;2024-02-23T06:45:49;98904.50;;;7.01;69.76
3122;BME280;1571;52.524;14.104;2024-02-23T06:48:18;98911.88;;;6.84;70.57
3122;BME280;1571;52.524;14.104;2024-02-23T06:50:46;98914.41;;;6.86;70.37
3122;BME280;1571;52.524;14.104;2024-02-23T06:53:15;98912.38;;;6.90;69.94
3122;BME280;1571;52.524;14.104;2024-02-23T06:55:43;98921.97;;;6.91;69.63
3122;BME280;1571;52.524;14.104;2024-02-23T06:58:11;98916.22;;;6.97;68.78
3122;BME280;1571;52.524;14.104;2024-02-23T07:00:44;98918.84;;;6.85;69.36
3122;BME280;1571;52.524;14.104;2024-02-23T07:03:13;98936.34;;;6.86;69.27
3122;BME280;1571;52.524;14.104;2024-02-23T07:05:42;98931.19;;;6.85;68.89
3122;BME280;1571;52.524;14.104;2024-02-23T07:08:10;98945.19;;;6.74;69.93
3122;BME280;1571;52.524;14.104;2024-02-23T07:10:39;98939.47;;;6.80;70.40
3122;BME280;1571;52.524;14.104;2024-02-23T07:13:07;98937.78;;;6.91;69.35
3122;BME280;1571;52.524;14.104;2024-02-23T07:15:35;98935.63;;;6.96;68.82
3122;BME280;1571;52.524;14.104;2024-02-23T07:18:06;98945.16;;;6.98;69.28
3122;BME280;1571;52.524;14.104;2024-02-23T07:20:36;98928.34;;;7.11;68.40
3122;BME280;1571;52.524;14.104;2024-02-23T07:23:05;98931.25;;;7.19;68.32
3122;BME280;1571;52.524;14.104;2024-02-23T07:25:34;98948.03;;;7.18;69.02
3122;BME280;1571;52.524;14.104;2024-02-23T07:28:03;98948.03;;;7.18;68.03
3122;BME280;1571;52.524;14.104;2024-02-23T07:30:31;98945.03;;;7.11;68.33
3122;BME280;1571;52.524;14.104;2024-02-23T07:32:59;98945.91;;;7.34;68.16
3122;BME280;1571;52.524;14.104;2024-02-23T07:35:29;98955.75;;;7.43;68.58
3122;BME280;1571;52.524;14.104;2024-02-23T07:37:58;98941.22;;;7.38;68.34
3122;BME280;1571;52.524;14.104;2024-02-23T07:40:26;98952.97;;;7.56;68.54
3122;BME280;1571;52.524;14.104;2024-02-23T07:42:55;98951.88;;;7.59;68.37
3122;BME280;1571;52.524;14.104;2024-02-23T07:45:23;98942.03;;;7.83;68.20
3122;BME280;1571;52.524;14.104;2024-02-23T07:47:52;98953.22;;;7.87;67.71
3122;BME280;1571;52.524;14.104;2024-02-23T07:50:21;98963.06;;;7.85;67.49
3122;BME280;1571;52.524;14.104;2024-02-23T07:52:50;98957.38;;;8.12;66.58
3122;BME280;1571;52.524;14.104;2024-02-23T07:55:19;98959.38;;;8.31;67.13
3122;BME280;1571;52.524;14.104;2024-02-23T07:57:47;98955.91;;;8.63;66.33
3122;BME280;1571;52.524;14.104;2024-02-23T08:00:16;98964.31;;;8.68;65.81
3122;BME280;1571;52.524;14.104;2024-02-23T08:02:44;98962.19;;;9.04;64.71
3122;BME280;1571;52.524;14.104;2024-02-23T08:05:13;98991.69;;;8.78;64.47
3122;BME280;1571;52.524;14.104;2024-02-23T08:07:42;98991.81;;;8.98;64.06
3122;BME280;1571;52.524;14.104;2024-02-23T08:10:12;98997.63;;;8.91;64.36
3122;BME280;1571;52.524;14.104;2024-02-23T08:12:40;99006.53;;;8.90;65.41
3122;BME280;1571;52.524;14.104;2024-02-23T08:15:10;99011.63;;;8.82;64.87
3122;BME280;1571;52.524;14.104;2024-02-23T08:17:38;99026.78;;;8.48;66.23
3122;BME280;1571;52.524;14.104;2024-02-23T08:20:07;99025.34;;;8.87;65.79
3122;BME280;1571;52.524;14.104;2024-02-23T08:22:36;99014.97;;;8.84;65.46
3122;BME280;1571;52.524;14.104;2024-02-23T08:25:04;99027.81;;;8.68;65.22
3122;BME280;1571;52.524;14.104;2024-02-23T08:27:34;99041.06;;;8.89;65.69
3122;BME280;1571;52.524;14.104;2024-02-23T08:30:03;99059.16;;;8.72;66.13
3122;BME280;1571;52.524;14.104;2024-02-23T08:32:31;99054.19;;;8.36;66.33
3122;BME280;1571;52.524;14.104;2024-02-23T08:35:00;99063.19;;;8.22;66.94
3122;BME280;1571;52.524;14.104;2024-02-23T08:37:28;99071.63;;;8.27;67.42
3122;BME280;1571;52.524;14.104;2024-02-23T08:39:56;99074.38;;;8.37;67.50
3122;BME280;1571;52.524;14.104;2024-02-23T08:42:25;99076.59;;;8.75;66.53
3122;BME280;1571;52.524;14.104;2024-02-23T08:44:55;99080.50;;;8.48;65.75
3122;BME280;1571;52.524;14.104;2024-02-23T08:47:23;99079.28;;;8.30;65.57
3122;BME280;1571;52.524;14.104;2024-02-23T08:49:51;99083.38;;;8.57;64.96
3122;BME280;1571;52.524;14.104;2024-02-23T08:52:20;99074.47;;;8.58;65.49
3122;BME280;1571;52.524;14.104;2024-02-23T08:54:49;99079.72;;;8.69;65.79
3122;BME280;1571;52.524;14.104;2024-02-23T08:57:17;99085.41;;;8.64;64.97
3122;BME280;1571;52.524;14.104;2024-02-23T08:59:47;99095.09;;;8.86;65.50
3122;BME280;1571;52.524;14.104;2024-02-23T09:02:16;99094.91;;;8.55;64.61
3122;BME280;1571;52.524;14.104;2024-02-23T09:04:45;99104.66;;;8.44;65.76
3122;BME280;1571;52.524;14.104;2024-02-23T09:07:14;99124.22;;;8.75;65.90
3122;BME280;1571;52.524;14.104;2024-02-23T09:09:43;99115.78;;;8.81;65.24
3122;BME280;1571;52.524;14.104;2024-02-23T09:12:11;99115.72;;;8.60;65.65
3122;BME280;1571;52.524;14.104;2024-02-23T09:14:42;99112.09;;;8.61;65.17
3122;BME280;1571;52.524;14.104;2024-02-23T09:17:10;99110.19;;;8.63;64.57
3122;BME280;1571;52.524;14.104;2024-02-23T09:19:41;99106.00;;;8.49;65.48
3122;BME280;1571;52.524;14.104;2024-02-23T09:22:09;99107.47;;;8.42;65.71
3122;BME280;1571;52.524;14.104;2024-02-23T09:24:39;99117.75;;;8.68;65.92
3122;BME280;1571;52.524;14.104;2024-02-23T09:27:07;99114.75;;;8.61;66.05
3122;BME280;1571;52.524;14.104;2024-02-23T09:29:35;99120.94;;;8.94;66.05
3122;BME280;1571;52.524;14.104;2024-02-23T09:32:04;99107.56;;;8.95;66.06
3122;BME280;1571;52.524;14.104;2024-02-23T09:34:33;99112.81;;;9.07;65.60
3122;BME280;1571;52.524;14.104;2024-02-23T09:37:02;99097.53;;;9.10;64.89
3122;BME280;1571;52.524;14.104;2024-02-23T09:39:31;99102.00;;;9.10;64.61
3122;BME280;1571;52.524;14.104;2024-02-23T09:41:59;99115.34;;;9.08;64.28
3122;BME280;1571;52.524;14.104;2024-02-23T09:44:32;99108.31;;;9.18;64.19
3122;BME280;1571;52.524;14.104;2024-02-23T09:47:02;99118.13;;;9.07;64.40
3122;BME280;1571;52.524;14.104;2024-02-23T09:49:37;99119.22;;;9.04;65.32
3122;BME280;1571;52.524;14.104;2024-02-23T09:52:08;99141.59;;;9.00;66.13
3122;BME280;1571;52.524;14.104;2024-02-23T09:54:37;99130.44;;;8.96;66.43
3122;BME280;1571;52.524;14.104;2024-02-23T09:57:08;99135.69;;;9.08;66.26
3122;BME280;1571;52.524;14.104;2024-02-23T09:59:37;99140.66;;;9.01;65.17
3122;BME280;1571;52.524;14.104;2024-02-23T10:02:07;99150.53;;;9.31;65.37
3122;BME280;1571;52.524;14.104;2024-02-23T10:04:37;99159.03;;;9.03;64.23
3122;BME280;1571;52.524;14.104;2024-02-23T10:07:08;99135.69;;;9.40;63.60
3122;BME280;1571;52.524;14.104;2024-02-23T10:09:36;99128.06;;;9.89;62.76
3122;BME280;1571;52.524;14.104;2024-02-23T10:12:06;99137.66;;;10.32;62.74
3122;BME280;1571;52.524;14.104;2024-02-23T10:14:34;99131.47;;;10.52;62.03
3122;BME280;1571;52.524;14.104;2024-02-23T10:17:03;99129.19;;;10.17;61.07
3122;BME280;1571;52.524;14.104;2024-02-23T10:19:34;99121.06;;;10.09;60.63
3122;BME280;1571;52.524;14.104;2024-02-23T10:22:02;99134.22;;;9.68;60.60
3122;BME280;1571;52.524;14.104;2024-02-23T10:24:32;99127.34;;;9.45;60.26
3122;BME280;1571;52.524;14.104;2024-02-23T10:27:00;99126.22;;;9.26;60.14
3122;BME280;1571;52.524;14.104;2024-02-23T10:29:30;99125.94;;;9.83;61.13
3122;BME280;1571;52.524;14.104;2024-02-23T10:31:59;99135.94;;;9.58;60.00
3122;BME280;1571;52.524;14.104;2024-02-23T10:34:31;99152.00;;;9.24;60.18
3122;BME280;1571;52.524;14.104;2024-02-23T10:36:59;99141.81;;;9.41;59.76
3122;BME280;1571;52.524;14.104;2024-02-23T10:39:29;99139.88;;;9.43;59.11
3122;BME280;1571;52.524;14.104;2024-02-23T10:42:02;99150.75;;;9.82;59.65
3122;BME280;1571;52.524;14.104;2024-02-23T10:44:31;99125.88;;;10.25;57.85
3122;BME280;1571;52.524;14.104;2024-02-23T10:47:01;99125.38;;;10.10;57.58
3122;BME280;1571;52.524;14.104;2024-02-23T10:49:30;99137.25;;;10.15;57.98
3122;BME280;1571;52.524;14.104;2024-02-23T10:52:00;99132.50;;;10.09;57.07
3122;BME280;1571;52.524;14.104;2024-02-23T10:54:31;99139.34;;;10.33;58.16
3122;BME280;1571;52.524;14.104;2024-02-23T10:57:01;99133.97;;;10.23;58.51
3122;BME280;1571;52.524;14.104;2024-02-23T10:59:30;99124.75;;;10.58;57.73
3122;BME280;1571;52.524;14.104;2024-02-23T11:01:59;99153.91;;;9.96;57.42
3122;BME280;1571;52.524;14.104;2024-02-23T11:04:29;99132.59;;;9.98;57.67
3122;BME280;1571;52.524;14.104;2024-02-23T11:06:59;99149.47;;;9.76;58.14
3122;BME280;1571;52.524;14.104;2024-02-23T11:09:32;99142.09;;;9.79;59.97
3122;BME280;1571;52.524;14.104;2024-02-23T11:12:04;99139.44;;;9.37;59.34
3122;BME280;1571;52.524;14.104;2024-02-23T11:14:35;99136.66;;;9.60;58.77
3122;BME280;1571;52.524;14.104;2024-02-23T11:17:04;99132.53;;;9.67;59.06
3122;BME280;1571;52.524;14.104;2024-02-23T11:19:33;99133.56;;;10.28;59.17
3122;BME280;1571;52.524;14.104;2024-02-23T11:22:03;99132.53;;;10.90;58.04
3122;BME280;1571;52.524;14.104;2024-02-23T11:24:43;99125.75;;;10.57;56.51
3122;BME280;1571;52.524;14.104;2024-02-23T11:27:15;99158.06;;;10.31;58.59
3122;BME280;1571;52.524;14.104;2024-02-23T11:29:45;99163.50;;;9.67;59.03
3122;BME280;1571;52.524;14.104;2024-02-23T11:32:15;99138.72;;;9.98;57.57
3122;BME280;1571;52.524;14.104;2024-02-23T11:34:54;99141.50;;;10.18;58.16
3122;BME280;1571;52.524;14.104;2024-02-23T11:37:23;99142.78;;;9.82;57.67
3122;BME280;1571;52.524;14.104;2024-02-23T11:39:52;99141.97;;;10.02;58.45
3122;BME280;1571;52.524;14.104;2024-02-23T11:42:23;99143.75;;;10.01;59.05
3122;BME280;1571;52.524;14.104;2024-02-23T11:44:53;99164.34;;;10.40;58.48
3122;BME280;1571;52.524;14.104;2024-02-23T11:47:21;99171.28;;;10.10;58.86
3122;BME280;1571;52.524;14.104;2024-02-23T11:49:51;99169.78;;;10.17;57.68
3122;BME280;1571;52.524;14.104;2024-02-23T11:52:19;99179.72;;;9.73;57.83
3122;BME280;1571;52.524;14.104;2024-02-23T11:54:48;99178.63;;;9.76;57.86
3122;BME280;1571;52.524;14.104;2024-02-23T11:57:16;99181.84;;;10.00;58.10
3122;BME280;1571;52.524;14.104;2024-02-23T11:59:46;99183.31;;;10.14;57.56
3122;BME280;1571;52.524;14.104;2024-02-23T12:02:14;99185.91;;;10.26;57.91
3122;BME280;1571;52.524;14.104;2024-02-23T12:04:43;99195.69;;;10.25;57.97
3122;BME280;1571;52.524;14.104;2024-02-23T12:07:11;99185.53;;;10.09;57.38
3122;BME280;1571;52.524;14.104;2024-02-23T12:09:40;99202.09;;;10.23;57.48
3122;BME280;1571;52.524;14.104;2024-02-23T12:12:09;99203.31;;;10.39;57.03
3122;BME280;1571;52.524;14.104;2024-02-23T12:14:39;99210.91;;;10.02;56.88
3122;BME280;1571;52.524;14.104;2024-02-23T12:17:08;99197.88;;;10.20;56.77
3122;BME280;1571;52.524;14.104;2024-02-23T12:19:38;99207.91;;;10.16;57.17
3122;BME280;1571;52.524;14.104;2024-02-23T12:22:06;99205.44;;;10.46;56.33
3122;BME280;1571;52.524;14.104;2024-02-23T12:24:35;99217.25;;;10.32;56.60
3122;BME280;1571;52.524;14.104;2024-02-23T12:27:03;99212.31;;;10.27;57.10
3122;BME280;1571;52.524;14.104;2024-02-23T12:29:33;99204.94;;;10.61;56.53
3122;BME280;1571;52.524;14.104;2024-02-23T12:32:05;99184.84;;;10.38;56.07
3122;BME280;1571;52.524;14.104;2024-02-23T12:34:35;99209.41;;;10.30;56.17
3122;BME280;1571;52.524;14.104;2024-02-23T12:37:04;99213.88;;;10.30;56.87
3122;BME280;1571;52.524;14.104;2024-02-23T12:39:33;99200.25;;;10.44;56.51
3122;BME280;1571;52.524;14.104;2024-02-23T12:42:01;99212.19;;;10.29;56.92
3122;BME280;1571;52.524;14.104;2024-02-23T12:44:29;99205.41;;;10.36;56.97
3122;BME280;1571;52.524;14.104;2024-02-23T12:46:58;99207.47;;;10.11;56.81
3122;BME280;1571;52.524;14.104;2024-02-23T12:49:26;99195.09;;;10.21;57.03
3122;BME280;1571;52.524;14.104;2024-02-23T12:51:56;99207.31;;;10.13;57.38
3122;BME280;1571;52.524;14.104;2024-02-23T12:54:24;99199.88;;;10.28;57.26
3122;BME280;1571;52.524;14.104;2024-02-23T12:56:52;99212.88;;;10.10;56.66
3122;BME280;1571;52.524;14.104;2024-02-23T12:59:21;99211.66;;;10.35;57.10
3122;BME280;1571;52.524;14.104;2024-02-23T13:01:49;99207.78;;;10.39;56.52
3122;BME280;1571;52.524;14.104;2024-02-23T13:04:19;99211.09;;;10.62;55.31
3122;BME280;1571;52.524;14.104;2024-02-23T13:06:47;99223.53;;;10.19;56.57
3122;BME280;1571;52.524;14.104;2024-02-23T13:09:17;99220.19;;;10.17;55.39
3122;BME280;1571;52.524;14.104;2024-02-23T13:11:46;99220.66;;;10.23;56.29
3122;BME280;1571;52.524;14.104;2024-02-23T13:14:15;99216.69;;;10.38;56.49
3122;BME280;1571;52.524;14.104;2024-02-23T13:16:43;99219.41;;;10.27;55.71
3122;BME280;1571;52.524;14.104;2024-02-23T13:19:11;99214.44;;;10.33;55.59
3122;BME280;1571;52.524;14.104;2024-02-23T13:21:41;99217.91;;;10.13;56.49
3122;BME280;1571;52.524;14.104;2024-02-23T13:24:09;99211.91;;;9.90;57.12
3122;BME280;1571;52.524;14.104;2024-02-23T13:26:39;99212.91;;;9.89;57.23